METAR Data
IDs: Format: Raw Decoded Include TAF

Data at: 2000 UTC 14 Dec 2018

KGLE 141935Z AUTO 02021G26KT 7SM OVC010 06/05 A3003 RMK AO2 T00570045
KGLE 141915Z AUTO 01018G23KT 4SM BR OVC010 05/04 A3003 RMK AO2 T00540043
KGLE 141855Z AUTO 01015G20KT 4SM -RA OVC010 05/04 A3004 RMK AO2 P0004 T00500040
KGLE 141835Z AUTO 01013G20KT 4SM -RA OVC008 05/04 A3004 RMK AO2 P0003 T00490039
KGLE 141815Z AUTO 02016G21KT 2 1/2SM RA OVC008 05/04 A3005 RMK AO2 P0002 T00470039
KGLE 141755Z AUTO 02015KT 2 1/2SM RA OVC008 05/04 A3005 RMK AO2 P0006 60023 T00470040 10047 20042
KGLE 141735Z AUTO 03015G22KT 3SM -RA OVC008 05/04 A3006 RMK AO2 P0002 T00450036
KGLE 141715Z AUTO 02017G25KT 4SM -RA OVC006 04/04 A3005 RMK AO2 P0001 T00440035
KGLE 141655Z AUTO 02018G24KT 4SM RA OVC006 04/04 A3005 RMK AO2 P0007 T00420035
KGLE 141635Z AUTO 02015G19KT 3SM -RA OVC006 04/04 A3005 RMK AO2 P0006 T00430035
KGLE 141615Z AUTO 03015G22KT 4SM RA OVC008 05/04 A3005 RMK AO2 P0003 T00450037
KGLE 141555Z AUTO 04017G21KT 2 1/2SM RA OVC008 05/04 A3004 RMK AO2 VIS 2V3 P0009 T00450036
KGLE 141535Z AUTO 04013G20KT 7SM -RA OVC010 05/04 A3004 RMK AO2 P0004 T00450036
KGLE 141515Z AUTO 04015G22KT 4SM RA OVC012 05/03 A3003 RMK AO2 P0002 T00450033
KGLE 141455Z AUTO 04014G25KT 10SM -RA OVC012 05/03 A3002 RMK AO2 P0001 60001 T00460032
KGLE 141435Z AUTO 04018G23KT 10SM OVC012 04/03 A3001 RMK AO2 P0001 T00440031
KGLE 141415Z AUTO 04017G22KT 10SM -RA OVC012 04/03 A3000 RMK AO2 P0001 T00420030
KGLE 141355Z AUTO 05016G23KT 10SM -RA OVC012 04/03 A2999 RMK AO2 T00420030
KGLE 141335Z AUTO 04017KT 10SM -DZ OVC012 04/03 A2998 RMK AO2 T00420030
KGLE 141315Z AUTO 04018G24KT 10SM -DZ OVC012 04/03 A2997 RMK AO2 T00440033
KGLE 141255Z AUTO 05016G25KT 10SM -RA OVC012 05/03 A2997 RMK AO2 T00450031
KGLE 141235Z AUTO 05016G23KT 10SM -RA OVC012 05/03 A2996 RMK AO2 T00470031
KGLE 141215Z AUTO 05020G26KT 10SM -DZ OVC012 05/03 A2995 RMK AO2 T00470031
KGLE 141155Z AUTO 06017G24KT 7SM -DZ OVC012 05/03 A2994 RMK AO2 60001 70047 T00470033 10060 20047
KGLE 141135Z AUTO 05017G30KT 4SM -RA OVC012 05/04 A2993 RMK AO2 T00480036
KGLE 141115Z AUTO 05018G27KT 5SM BR OVC012 05/04 A2992 RMK AO2 T00510035
KGLE 141055Z AUTO 05022G28KT 7SM OVC012 05/04 A2992 RMK AO2 T00510035
KGLE 141035Z AUTO 05019KT 7SM OVC012 05/04 A2992 RMK AO2 T00530035
KGLE 141015Z AUTO 05022G29KT 10SM OVC012 06/04 A2992 RMK AO2 T00550037
KGLE 140955Z AUTO 05017G26KT 10SM OVC012 06/04 A2991 RMK AO2 P0001 T00550038
KGLE 140935Z AUTO 05018G28KT 10SM OVC010 05/04 A2990 RMK AO2 P0001 T00540040
KGLE 140915Z AUTO 05020G26KT 3SM DZ OVC010 05/04 A2989 RMK AO2 P0001 T00530040
KGLE 140855Z AUTO 05019G26KT 10SM -RA OVC010 06/04 A2988 RMK AO2 T00550040
KGLE 140835Z AUTO 04018G26KT 10SM OVC010 06/04 A2988 RMK AO2 T00570040
KGLE 140815Z AUTO 04015G21KT 10SM OVC010 06/04 A2988 RMK AO2 T00570040
KGLE 140755Z AUTO 04013G23KT 10SM UP OVC010 06/04 A2988 RMK AO2 T00580042
KGLE 140735Z AUTO 04015G19KT 10SM OVC010 06/04 A2987 RMK AO2 T00570043
KGLE 140715Z AUTO 05015G20KT 10SM OVC010 06/04 A2987 RMK AO2 T00570043
KGLE 140655Z AUTO 05016G23KT 10SM RA OVC010 06/04 A2986 RMK AO2 T00560042
KGLE 140635Z AUTO 04019G24KT 10SM -DZ OVC012 06/04 A2985 RMK AO2 T00560043
KGLE 140615Z AUTO 05018G23KT 10SM -RA OVC012 06/04 A2986 RMK AO2 T00570041
KGLE 140555Z AUTO 06017G24KT 10SM OVC012 06/04 A2985 RMK AO2 60015 T00600040 10060 20056 401620055
KGLE 140535Z AUTO 05020G25KT 10SM OVC012 06/04 A2985 RMK AO2 T00600039
KGLE 140515Z AUTO 06017G28KT 10SM OVC012 06/04 A2985 RMK AO2 T00600038
KGLE 140455Z AUTO 06023G27KT 10SM OVC012 06/04 A2985 RMK AO2 T00600038
KGLE 140435Z AUTO 06020G30KT 10SM OVC012 06/04 A2983 RMK AO2 T00600038
KGLE 140415Z AUTO 06022G29KT 10SM OVC012 06/04 A2982 RMK AO2 T00600039
KGLE 140355Z AUTO 05022G28KT 10SM OVC012 06/04 A2982 RMK AO2 T00600040
KGLE 140335Z AUTO 06019G28KT 10SM OVC012 06/04 A2981 RMK AO2 T00600040
KGLE 140315Z AUTO 06021G33KT 10SM OVC012 06/04 A2981 RMK AO2 T00600040
KGLE 140255Z AUTO 06017G31KT 10SM OVC012 06/04 A2980 RMK AO2 60015 T00580040
KGLE 140235Z AUTO 06019G29KT 10SM OVC012 06/04 A2980 RMK AO2 T00580040
KGLE 140215Z AUTO 05023G30KT 10SM OVC012 06/04 A2978 RMK AO2 T00580043
KGLE 140155Z AUTO 05024G31KT 10SM OVC012 06/05 A2978 RMK AO2 T00570045
KGLE 140135Z AUTO 05020G29KT 10SM -DZ OVC010 06/05 A2980 RMK AO2 T00570045
KGLE 140115Z AUTO 05018G27KT 10SM RA OVC010 06/05 A2980 RMK AO2 T00570047
KGLE 140055Z AUTO 05022G31KT 1 1/4SM -SN OVC010 06/05 A2979 RMK AO2 P0015 T00560046
KGLE 140035Z AUTO 04020G27KT 7SM -RA OVC012 06/05 A2979 RMK AO2 P0001 T00570045
KGLE 140015Z AUTO 04019G26KT 10SM OVC012 06/05 A2978 RMK AO2 T00570045
KGLE 132355Z AUTO 04023G29KT 10SM OVC014 06/05 A2976 RMK AO2 P0001 60025 T00560045 10162 20055
KGLE 132335Z AUTO 04022G28KT 10SM -RA OVC012 06/05 A2976 RMK AO2 P0001 T00560045
KGLE 132315Z AUTO 04024G34KT 5SM -RA BKN012 OVC024 06/05 A2975 RMK AO2 P0001 T00560045
KGLE 132255Z AUTO 03021G32KT 10SM RA OVC012 06/05 A2974 RMK AO2 T00560045
KGLE 132235Z AUTO 03026G32KT 10SM DZ OVC010 06/05 A2975 RMK AO2 T00570045
KGLE 132215Z AUTO 03023G30KT 10SM -RA OVC010 06/05 A2975 RMK AO2 T00590047
KGLE 132155Z AUTO 04024G29KT 7SM -RA OVC010 06/05 A2972 RMK AO2 P0007 T00620052
KGLE 132135Z AUTO 03020G28KT 7SM -RA OVC010 07/06 A2971 RMK AO2 P0004 T00660057
KGLE 132115Z AUTO 03020G27KT 10SM -RA OVC008 07/06 A2971 RMK AO2 P0003 T00690060
KGLE 132055Z AUTO 03016G22KT 1 1/4SM -RA OVC008 07/06 A2971 RMK AO2 P0013 60017 T00720063
KGLE 132035Z AUTO 02021G27KT 10SM -RA OVC008 08/07 A2969 RMK AO2 T00760067
KGLE 132015Z AUTO 02020G28KT 10SM -DZ OVC008 08/07 A2970 RMK AO2 T00750066
KGLE 131955Z AUTO 01020G26KT 7SM -RA OVC006 08/07 A2970 RMK AO2 P0003 T00800071
KGLE 131935Z AUTO 01016G19KT 7SM -RA BKN004 OVC009 09/08 A2970 RMK AO2 P0003 T00850076
KGLE 131915Z AUTO 02012G23KT 4SM RA BKN006 OVC012 09/09 A2970 RMK AO2 P0002 T00940086
KGLE 131855Z AUTO 36020KT 4SM -RA BKN008 OVC012 12/10 A2968 RMK AO2 P0001 T01180104
KGLE 131835Z AUTO 36010KT 5SM -RA SCT005 BKN010 OVC037 15/13 A2967 RMK AO2 T01460133
KGLE 131815Z AUTO 00000KT 10SM -DZ SCT033 OVC041 16/14 A2969 RMK AO2 T01610140
KGLE 131755Z AUTO 00000KT 10SM -RA SCT013 BKN026 OVC039 16/14 A2970 RMK AO2 60006 T01610142 10162 20130
KGLE 131735Z AUTO 21004KT 10SM SCT008 BKN014 OVC024 16/14 A2971 RMK AO2 T01610140
KGLE 131715Z AUTO 18005KT 7SM BKN007 BKN016 OVC030 16/14 A2971 RMK AO2 T01610142
KGLE 131655Z AUTO 18005KT 7SM BKN007 OVC021 16/15 A2971 RMK AO2 T01590146
KGLE 131635Z AUTO 21005KT 5SM BR OVC007 16/15 A2972 RMK AO2 T01550145
KGLE 131615Z AUTO 20007KT 7SM OVC009 16/14 A2973 RMK AO2 T01550141
KGLE 131555Z AUTO 19007KT 7SM BKN009 BKN013 OVC027 16/14 A2973 RMK AO2 P0001 T01550141
KGLE 131535Z AUTO 19010KT 7SM SCT009 BKN024 OVC080 16/15 A2972 RMK AO2 P0001 T01550145
KGLE 131515Z AUTO 15006KT 4SM -RA SCT009 OVC085 15/14 A2970 RMK AO2 P0001 T01470141
KGLE 131455Z AUTO 19005KT 2 1/2SM BR SCT029 OVC085 14/14 A2972 RMK AO2 P0004 60005 T01430137
KGLE 131435Z AUTO 16003KT 3SM -RA SCT019 BKN060 OVC095 14/14 A2972 RMK AO2 P0004 T01410135
KGLE 131415Z AUTO 12006KT 4SM RA SCT017 BKN032 OVC080 14/13 A2971 RMK AO2 P0003 T01370130
KGLE 131355Z AUTO 16003KT 7SM -RA BKN017 BKN033 OVC090 14/13 A2972 RMK AO2 P0001 T01370129
KGLE 131335Z AUTO 17003KT 5SM -RA BKN017 OVC090 14/13 A2971 RMK AO2 P0001 T01360128
KGLE 131315Z AUTO 18004KT 7SM BKN017 OVC085 14/13 A2970 RMK AO2 T01350128
KGLE 131255Z AUTO 14005KT 5SM BR SCT017 SCT085 BKN120 13/12 A2969 RMK AO2 T01300123
KGLE 131235Z AUTO 20005KT 7SM SCT012 SCT120 13/13 A2968 RMK AO2 T01330125
KGLE 131215Z AUTO 19007KT 7SM OVC012 14/13 A2968 RMK AO2 T01350128
KGLE 131155Z AUTO 16004KT 5SM BR OVC012 14/13 A2968 RMK AO2 T01360129 10137 20128
KGLE 131135Z AUTO 16004KT 7SM OVC014 14/13 A2968 RMK AO2 T01350127
KGLE 131115Z AUTO 19006KT 5SM BR BKN010 OVC017 13/13 A2968 RMK AO2 T01340128
KGLE 131055Z AUTO 20003KT 7SM OVC012 13/13 A2968 RMK AO2 T01320125
KGLE 131035Z AUTO 00000KT 7SM OVC010 14/13 A2969 RMK AO2 T01350127
KGLE 131015Z AUTO 00000KT 7SM OVC010 13/13 A2970 RMK AO2 T01320125
KGLE 130955Z AUTO 18007KT 7SM OVC010 13/13 A2970 RMK AO2 T01320125
KGLE 130935Z AUTO 17005KT 10SM OVC012 13/12 A2971 RMK AO2 T01300120
KGLE 130915Z AUTO 18007KT 10SM SCT014 BKN090 OVC110 13/12 A2973 RMK AO2 T01320120
KGLE 130855Z AUTO 19008KT 10SM BKN110 13/12 A2973 RMK AO2 T01330120
KGLE 130835Z AUTO 20012KT 10SM OVC100 14/12 A2973 RMK AO2 T01370122
KGLE 130815Z AUTO 21009KT 10SM OVC110 13/12 A2973 RMK AO2 T01330116